Time;durP1;ratioP1;P1;durP2;ratioP2;P2;SDS_P1;SDS_P2;PMS_P1;PMS_P2;Temp;Humidity;BMP_temperature;BMP_pressure;BME280_temperature;BME280_humidity;BME280_pressure;Samples;Min_cycle;Max_cycle;Signal;HPM_P1;HPM_P2
2022/12/02 00:00:20;;;;;;;11.60;10.70;;;;;;;;;;4991987;28;20640;-65
2022/12/02 00:02:46;;;;;;;12.13;11.23;;;;;;;;;;4992604;28;20121;-64
2022/12/02 00:05:14;;;;;;;11.35;10.27;;;;;;;;;;4993791;28;20030;-65
2022/12/02 00:07:40;;;;;;;11.88;10.93;;;;;;;;;;4995569;28;20061;-65
2022/12/02 00:10:38;;;;;;;13.95;12.05;;;;;;;;;;4998265;28;20022;-65
2022/12/02 00:13:18;;;;;;;18.48;12.15;;;;;;;;;;4975979;28;20049;-65
2022/12/02 00:16:03;;;;;;;12.77;11.70;;;;;;;;;;4998318;28;20154;-65
2022/12/02 00:18:29;;;;;;;11.60;10.50;;;;;;;;;;4980355;28;20578;-65
2022/12/02 00:20:55;;;;;;;9.77;9.02;;;;;;;;;;4996895;28;20042;-65
2022/12/02 00:23:21;;;;;;;13.45;10.18;;;;;;;;;;4997153;28;20046;-65
2022/12/02 00:25:48;;;;;;;12.18;11.18;;;;;;;;;;4998210;28;20052;-65
2022/12/02 00:28:14;;;;;;;11.32;10.52;;;;;;;;;;4997537;28;20673;-65
2022/12/02 00:30:40;;;;;;;9.70;8.98;;;;;;;;;;4995522;28;20025;-65
2022/12/02 00:33:05;;;;;;;12.20;9.05;;;;;;;;;;4997651;28;20040;-65
2022/12/02 00:35:31;;;;;;;15.32;11.95;;;;;;;;;;4997453;28;20667;-65
2022/12/02 00:37:56;;;;;;;11.07;10.27;;;;;;;;;;4995724;28;20121;-65
2022/12/02 00:40:22;;;;;;;10.63;9.85;;;;;;;;;;4998368;28;20042;-65
2022/12/02 00:42:47;;;;;;;15.02;12.57;;;;;;;;;;4994143;28;20118;-65
2022/12/02 00:47:58;;;;;;;10.93;10.13;;;;;;;;;;4995056;28;20060;-66
2022/12/02 00:50:24;;;;;;;11.30;10.30;;;;;;;;;;4997835;28;20034;-65
2022/12/02 00:52:49;;;;;;;10.32;9.48;;;;;;;;;;4992274;28;20176;-65
2022/12/02 00:55:15;;;;;;;10.55;9.50;;;;;;;;;;4998038;28;20030;-65
2022/12/02 00:57:40;;;;;;;10.50;9.63;;;;;;;;;;4997005;28;20045;-65
2022/12/02 01:00:08;;;;;;;9.82;9.05;;;;;;;;;;4997018;28;20022;-65
2022/12/02 01:02:33;;;;;;;11.32;10.32;;;;;;;;;;4995594;28;20069;-66
2022/12/02 01:04:58;;;;;;;11.10;10.27;;;;;;;;;;4997139;28;20072;-66
2022/12/02 01:07:24;;;;;;;10.77;9.95;;;;;;;;;;4996995;28;20636;-66
2022/12/02 01:09:49;;;;;;;13.30;11.77;;;;;;;;;;4996997;28;20084;-67
2022/12/02 01:12:15;;;;;;;11.70;10.77;;;;;;;;;;4996905;28;20069;-68
2022/12/02 01:14:41;;;;;;;11.65;10.52;;;;;;;;;;4997757;28;20092;-66
2022/12/02 01:17:06;;;;;;;11.70;10.48;;;;;;;;;;4997031;28;20025;-66
2022/12/02 01:19:31;;;;;;;10.95;9.57;;;;;;;;;;4997361;28;20037;-66
2022/12/02 01:21:57;;;;;;;11.82;9.98;;;;;;;;;;4997573;28;20108;-66
2022/12/02 01:24:22;;;;;;;10.68;9.77;;;;;;;;;;4996683;28;20034;-66
2022/12/02 01:26:48;;;;;;;22.75;13.93;;;;;;;;;;4992939;28;20045;-66
2022/12/02 01:29:13;;;;;;;10.93;10.13;;;;;;;;;;4994313;28;20742;-66
2022/12/02 01:31:38;;;;;;;9.82;9.02;;;;;;;;;;4994039;28;20088;-66
2022/12/02 01:34:04;;;;;;;12.55;11.27;;;;;;;;;;5000037;28;20048;-65
2022/12/02 01:36:29;;;;;;;11.60;10.70;;;;;;;;;;4996672;28;20033;-65
2022/12/02 01:38:54;;;;;;;10.88;10.10;;;;;;;;;;4994277;28;20121;-66
2022/12/02 01:41:20;;;;;;;11.68;10.70;;;;;;;;;;4994538;28;20041;-64
2022/12/02 01:43:46;;;;;;;12.23;11.07;;;;;;;;;;4994910;28;20124;-66
2022/12/02 01:46:11;;;;;;;9.27;8.50;;;;;;;;;;4993583;28;20034;-65
2022/12/02 01:48:37;;;;;;;16.10;11.77;;;;;;;;;;4995758;28;20039;-65
2022/12/02 01:51:05;;;;;;;10.98;10.18;;;;;;;;;;4993743;28;20034;-65
2022/12/02 01:53:32;;;;;;;17.90;11.95;;;;;;;;;;4995622;28;20049;-65
2022/12/02 01:55:58;;;;;;;10.88;9.98;;;;;;;;;;5004154;28;20030;-65
2022/12/02 01:58:27;;;;;;;11.38;10.40;;;;;;;;;;4998355;28;20045;-65
2022/12/02 02:00:53;;;;;;;11.75;10.68;;;;;;;;;;4994448;28;20034;-66
2022/12/02 02:03:19;;;;;;;12.48;11.48;;;;;;;;;;4996696;28;20714;-66
2022/12/02 02:05:45;;;;;;;10.73;9.93;;;;;;;;;;4995690;28;20034;-64
2022/12/02 02:08:11;;;;;;;11.98;10.85;;;;;;;;;;4996307;28;20033;-66
2022/12/02 02:10:38;;;;;;;10.65;9.85;;;;;;;;;;4993544;28;20045;-65
2022/12/02 02:13:05;;;;;;;9.95;9.25;;;;;;;;;;4997706;28;20037;-66
2022/12/02 02:15:31;;;;;;;11.25;10.32;;;;;;;;;;4995297;28;20038;-66
2022/12/02 02:17:57;;;;;;;11.50;10.52;;;;;;;;;;4997786;28;20428;-63
2022/12/02 02:20:24;;;;;;;9.60;8.85;;;;;;;;;;4995064;28;20065;-64
2022/12/02 02:23:05;;;;;;;9.13;8.43;;;;;;;;;;4992633;28;20062;-63
2022/12/02 02:25:38;;;;;;;10.45;9.65;;;;;;;;;;4997476;28;20467;-64
2022/12/02 02:28:04;;;;;;;11.43;10.52;;;;;;;;;;4997593;28;20536;-63
2022/12/02 02:30:32;;;;;;;10.60;9.70;;;;;;;;;;4994131;28;20478;-64
2022/12/02 02:33:00;;;;;;;10.82;10.00;;;;;;;;;;4995868;28;20048;-64
2022/12/02 02:35:25;;;;;;;10.95;10.10;;;;;;;;;;4998599;28;20372;-63
2022/12/02 02:37:52;;;;;;;12.73;11.30;;;;;;;;;;4995469;28;20034;-65
2022/12/02 02:40:19;;;;;;;11.75;10.85;;;;;;;;;;4995551;28;20026;-63
2022/12/02 02:42:48;;;;;;;10.93;9.80;;;;;;;;;;4992416;28;20113;-64
2022/12/02 02:45:14;;;;;;;11.60;10.75;;;;;;;;;;4995505;28;20109;-63
2022/12/02 02:47:40;;;;;;;10.38;9.48;;;;;;;;;;4996619;28;20116;-63
2022/12/02 02:50:06;;;;;;;11.23;10.23;;;;;;;;;;4995819;28;20037;-63
2022/12/02 02:52:32;;;;;;;10.85;10.05;;;;;;;;;;4994839;28;20117;-63
2022/12/02 02:54:57;;;;;;;11.18;10.27;;;;;;;;;;4991969;28;20133;-64
2022/12/02 02:57:22;;;;;;;10.63;9.73;;;;;;;;;;4997197;28;20040;-64
2022/12/02 02:59:51;;;;;;;13.70;10.68;;;;;;;;;;4996342;28;20034;-64
2022/12/02 03:02:17;;;;;;;11.77;10.73;;;;;;;;;;4992979;28;20121;-63
2022/12/02 03:04:43;;;;;;;11.70;10.65;;;;;;;;;;4995513;28;20140;-63
2022/12/02 03:07:09;;;;;;;12.10;10.90;;;;;;;;;;4997689;28;20026;-64
2022/12/02 03:09:34;;;;;;;12.05;10.98;;;;;;;;;;4994163;28;20448;-64
2022/12/02 03:12:00;;;;;;;11.35;10.45;;;;;;;;;;4993435;28;20147;-64
2022/12/02 03:14:26;;;;;;;10.88;9.93;;;;;;;;;;4994059;28;20049;-65
2022/12/02 03:16:53;;;;;;;9.57;8.93;;;;;;;;;;4996925;28;20416;-64
2022/12/02 03:19:18;;;;;;;12.10;10.82;;;;;;;;;;4994789;28;20378;-65
2022/12/02 03:21:45;;;;;;;10.48;8.90;;;;;;;;;;4994762;28;20034;-66
2022/12/02 03:24:11;;;;;;;10.48;9.68;;;;;;;;;;4992944;28;20030;-64
2022/12/02 03:26:37;;;;;;;12.43;11.52;;;;;;;;;;4993162;28;20034;-65
2022/12/02 03:29:03;;;;;;;10.63;9.63;;;;;;;;;;4995787;28;20124;-64
2022/12/02 03:31:30;;;;;;;14.40;12.70;;;;;;;;;;4992151;28;20037;-64
2022/12/02 03:33:56;;;;;;;11.63;10.68;;;;;;;;;;4991545;28;20118;-65
2022/12/02 03:36:22;;;;;;;11.88;10.88;;;;;;;;;;4993646;28;20112;-64
2022/12/02 03:38:48;;;;;;;13.07;11.70;;;;;;;;;;4995806;28;20038;-64
2022/12/02 03:41:13;;;;;;;11.98;10.95;;;;;;;;;;4992119;28;20030;-66
2022/12/02 03:43:39;;;;;;;10.25;9.45;;;;;;;;;;4997132;28;20841;-66
2022/12/02 03:46:06;;;;;;;12.77;11.43;;;;;;;;;;4993623;28;20132;-66
2022/12/02 03:48:33;;;;;;;14.13;12.63;;;;;;;;;;5000818;28;20042;-65
2022/12/02 03:50:59;;;;;;;9.98;9.20;;;;;;;;;;4997742;28;20026;-66
2022/12/02 03:53:24;;;;;;;12.10;11.13;;;;;;;;;;4999460;28;20037;-67
2022/12/02 03:55:50;;;;;;;10.20;9.35;;;;;;;;;;4993892;28;20439;-65
2022/12/02 03:58:15;;;;;;;11.70;10.75;;;;;;;;;;4996937;28;20033;-67
2022/12/02 04:00:41;;;;;;;11.05;10.25;;;;;;;;;;4998859;28;20106;-67
2022/12/02 04:03:06;;;;;;;13.18;11.85;;;;;;;;;;4996125;28;20041;-66
2022/12/02 04:05:32;;;;;;;11.35;10.38;;;;;;;;;;4996860;28;20030;-66
2022/12/02 04:07:57;;;;;;;11.20;10.23;;;;;;;;;;4996014;28;20042;-66
2022/12/02 04:10:23;;;;;;;11.88;10.88;;;;;;;;;;4995199;28;20026;-65
2022/12/02 04:12:48;;;;;;;16.58;12.50;;;;;;;;;;4998259;28;20116;-65
2022/12/02 04:15:13;;;;;;;10.35;9.63;;;;;;;;;;4998708;28;20476;-66
2022/12/02 04:17:39;;;;;;;10.40;9.70;;;;;;;;;;4999469;28;20034;-65
2022/12/02 04:20:06;;;;;;;14.05;12.27;;;;;;;;;;4997893;28;20029;-65
2022/12/02 04:22:32;;;;;;;10.85;9.93;;;;;;;;;;4995866;28;20034;-65
2022/12/02 04:24:58;;;;;;;13.57;12.23;;;;;;;;;;4997075;28;20779;-66
2022/12/02 04:27:24;;;;;;;10.10;9.35;;;;;;;;;;5002248;28;20033;-66
2022/12/02 04:29:50;;;;;;;11.38;10.57;;;;;;;;;;4998743;28;20037;-66
2022/12/02 04:32:16;;;;;;;12.65;11.45;;;;;;;;;;4992907;28;20412;-66
2022/12/02 04:34:42;;;;;;;10.02;9.13;;;;;;;;;;4993206;28;20466;-65
2022/12/02 04:37:07;;;;;;;11.63;10.73;;;;;;;;;;4991853;28;20030;-65
2022/12/02 04:39:33;;;;;;;11.38;10.45;;;;;;;;;;4997622;28;20115;-66
2022/12/02 04:41:58;;;;;;;11.85;10.70;;;;;;;;;;4996917;28;20488;-65
2022/12/02 04:44:23;;;;;;;9.70;8.95;;;;;;;;;;4998126;28;20125;-66
2022/12/02 04:46:49;;;;;;;11.43;10.40;;;;;;;;;;4996879;28;20133;-66
2022/12/02 04:49:14;;;;;;;12.20;11.30;;;;;;;;;;4997681;28;20041;-66
2022/12/02 04:51:39;;;;;;;11.48;10.48;;;;;;;;;;4998846;28;20025;-66
2022/12/02 04:54:05;;;;;;;10.63;9.63;;;;;;;;;;5003755;28;20423;-65
2022/12/02 04:56:30;;;;;;;12.40;11.48;;;;;;;;;;4995662;28;20112;-65
2022/12/02 04:58:55;;;;;;;14.25;12.23;;;;;;;;;;4994368;28;20050;-65
2022/12/02 05:01:21;;;;;;;10.80;10.02;;;;;;;;;;4995285;28;20141;-66
2022/12/02 05:03:46;;;;;;;11.48;10.52;;;;;;;;;;4995738;28;20041;-65
2022/12/02 05:06:11;;;;;;;11.85;10.95;;;;;;;;;;4998444;28;20026;-66
2022/12/02 05:08:37;;;;;;;14.43;11.50;;;;;;;;;;4997100;28;20454;-66
2022/12/02 05:11:02;;;;;;;17.73;12.32;;;;;;;;;;4996109;28;20025;-65
2022/12/02 05:13:27;;;;;;;10.70;9.73;;;;;;;;;;4997484;28;20400;-66
2022/12/02 05:15:53;;;;;;;13.40;12.38;;;;;;;;;;4994996;28;20030;-65
2022/12/02 05:18:18;;;;;;;12.93;11.77;;;;;;;;;;4998049;28;20037;-65
2022/12/02 05:20:43;;;;;;;11.75;10.65;;;;;;;;;;4998998;28;20360;-64
2022/12/02 05:23:09;;;;;;;12.05;11.00;;;;;;;;;;4993880;28;20061;-63
2022/12/02 05:25:34;;;;;;;11.30;10.32;;;;;;;;;;4993253;28;20092;-64
2022/12/02 05:27:59;;;;;;;11.63;10.57;;;;;;;;;;4995129;28;20038;-65
2022/12/02 05:30:25;;;;;;;10.30;9.50;;;;;;;;;;4998137;28;20314;-65
2022/12/02 05:32:51;;;;;;;11.77;10.70;;;;;;;;;;4994996;28;20042;-66
2022/12/02 05:35:16;;;;;;;11.50;10.57;;;;;;;;;;5000471;28;20040;-66
2022/12/02 05:37:42;;;;;;;12.25;11.23;;;;;;;;;;4997127;28;20500;-66
2022/12/02 05:40:08;;;;;;;12.15;11.15;;;;;;;;;;4999067;28;20037;-67
2022/12/02 05:42:33;;;;;;;10.45;9.68;;;;;;;;;;4997617;28;20430;-66
2022/12/02 05:45:04;;;;;;;12.32;11.20;;;;;;;;;;4997564;28;20356;-67
2022/12/02 05:47:31;;;;;;;10.90;9.98;;;;;;;;;;4997524;28;20027;-66
2022/12/02 05:49:58;;;;;;;12.65;11.50;;;;;;;;;;4997115;28;20066;-66
2022/12/02 05:52:28;;;;;;;11.27;10.45;;;;;;;;;;4992748;28;20140;-66
2022/12/02 05:54:57;;;;;;;10.32;9.48;;;;;;;;;;4996834;28;20064;-66
2022/12/02 05:57:25;;;;;;;12.85;11.73;;;;;;;;;;4998447;28;20030;-67
2022/12/02 06:00:12;;;;;;;10.05;9.35;;;;;;;;;;4993598;28;20082;-66
2022/12/02 06:02:44;;;;;;;11.80;10.80;;;;;;;;;;4995888;28;20811;-66
2022/12/02 06:05:19;;;;;;;9.48;8.77;;;;;;;;;;4996365;28;20061;-66
2022/12/02 06:07:45;;;;;;;12.55;11.50;;;;;;;;;;4993966;28;20034;-67
2022/12/02 06:10:30;;;;;;;14.63;12.07;;;;;;;;;;4996500;28;20033;-65
2022/12/02 06:12:59;;;;;;;10.25;9.55;;;;;;;;;;4993522;28;20041;-67
2022/12/02 06:15:31;;;;;;;10.68;9.88;;;;;;;;;;4995207;28;20069;-67
2022/12/02 06:17:57;;;;;;;13.43;12.23;;;;;;;;;;4994072;28;20037;-67
2022/12/02 06:20:31;;;;;;;10.85;10.07;;;;;;;;;;4996885;28;20519;-67
2022/12/02 06:22:56;;;;;;;12.02;11.10;;;;;;;;;;4995114;28;20041;-67
2022/12/02 06:25:28;;;;;;;12.55;11.38;;;;;;;;;;4992739;28;20436;-67
2022/12/02 06:27:58;;;;;;;10.90;10.13;;;;;;;;;;4995591;28;20034;-66
2022/12/02 06:30:24;;;;;;;10.47;9.57;;;;;;;;;;4994872;28;20088;-66
2022/12/02 06:32:53;;;;;;;10.93;9.98;;;;;;;;;;4996472;28;20038;-67
2022/12/02 06:35:28;;;;;;;13.77;11.20;;;;;;;;;;4994507;28;20062;-66
2022/12/02 06:37:57;;;;;;;9.88;9.18;;;;;;;;;;4993780;28;20041;-66
2022/12/02 06:40:33;;;;;;;12.25;10.00;;;;;;;;;;4992608;28;20042;-67
2022/12/02 06:43:00;;;;;;;12.13;11.13;;;;;;;;;;4995243;28;20030;-67
2022/12/02 06:45:29;;;;;;;11.18;10.27;;;;;;;;;;4996482;28;20065;-68
2022/12/02 06:48:03;;;;;;;11.48;10.38;;;;;;;;;;4995775;28;20029;-67
2022/12/02 06:50:31;;;;;;;12.13;11.20;;;;;;;;;;4996382;28;20460;-67
2022/12/02 06:53:10;;;;;;;13.10;10.43;;;;;;;;;;4991445;28;20038;-66
2022/12/02 06:55:37;;;;;;;9.73;8.93;;;;;;;;;;4993350;28;20108;-66
2022/12/02 06:58:40;;;;;;;9.82;9.00;;;;;;;;;;4994134;28;20034;-65
2022/12/02 07:01:12;;;;;;;10.70;9.95;;;;;;;;;;4992829;28;20044;-65
2022/12/02 07:03:47;;;;;;;10.35;9.52;;;;;;;;;;4992846;28;20030;-65
2022/12/02 07:06:17;;;;;;;11.80;10.93;;;;;;;;;;4993708;28;20034;-65
2022/12/02 07:08:42;;;;;;;13.77;12.55;;;;;;;;;;4994453;28;20113;-60
2022/12/02 07:11:18;;;;;;;10.98;10.18;;;;;;;;;;4994321;28;20622;-66
2022/12/02 07:13:43;;;;;;;10.43;9.70;;;;;;;;;;4992740;28;20368;-65
2022/12/02 07:16:35;;;;;;;11.50;10.50;;;;;;;;;;4995108;28;20033;-65
2022/12/02 07:19:00;;;;;;;12.68;11.65;;;;;;;;;;4992603;28;20042;-67
2022/12/02 07:21:26;;;;;;;11.20;10.40;;;;;;;;;;4995657;28;20034;-66
2022/12/02 07:23:51;;;;;;;10.95;10.10;;;;;;;;;;4993836;28;20041;-66
2022/12/02 07:26:18;;;;;;;10.82;10.00;;;;;;;;;;4992982;28;20364;-64
2022/12/02 07:28:44;;;;;;;10.30;9.50;;;;;;;;;;4995637;28;20052;-65
2022/12/02 07:31:20;;;;;;;11.15;10.25;;;;;;;;;;4993059;28;20030;-66
2022/12/02 07:33:46;;;;;;;9.43;8.82;;;;;;;;;;4995982;28;20034;-65
2022/12/02 07:36:11;;;;;;;10.90;10.13;;;;;;;;;;4995157;28;20027;-65
2022/12/02 07:38:36;;;;;;;11.05;10.15;;;;;;;;;;4996184;28;20030;-63
2022/12/02 07:41:02;;;;;;;9.80;9.10;;;;;;;;;;4993261;28;20654;-65
2022/12/02 07:43:28;;;;;;;11.45;10.55;;;;;;;;;;4992242;28;20057;-64
2022/12/02 07:45:54;;;;;;;12.18;11.27;;;;;;;;;;4994306;28;20030;-63
2022/12/02 07:48:19;;;;;;;11.00;10.20;;;;;;;;;;4992743;28;20026;-64
2022/12/02 07:50:44;;;;;;;11.43;10.32;;;;;;;;;;4992673;28;20947;-66
2022/12/02 07:53:10;;;;;;;10.30;9.50;;;;;;;;;;4989914;28;20038;-65
2022/12/02 07:55:35;;;;;;;10.65;9.85;;;;;;;;;;4992513;28;20042;-65
2022/12/02 07:58:01;;;;;;;11.52;10.43;;;;;;;;;;4993011;28;20065;-66
2022/12/02 08:00:26;;;;;;;10.38;9.68;;;;;;;;;;4990953;28;20066;-65
2022/12/02 08:02:54;;;;;;;12.55;11.65;;;;;;;;;;4990552;28;20038;-66
2022/12/02 08:05:20;;;;;;;11.63;10.73;;;;;;;;;;4994658;28;20073;-65
2022/12/02 08:07:45;;;;;;;14.15;10.48;;;;;;;;;;4992627;28;20073;-65
2022/12/02 08:10:11;;;;;;;10.65;9.95;;;;;;;;;;4993094;28;20372;-66
2022/12/02 08:12:37;;;;;;;11.23;10.32;;;;;;;;;;4995485;28;20046;-64
2022/12/02 08:15:04;;;;;;;10.32;9.60;;;;;;;;;;4992878;28;20494;-64
2022/12/02 08:17:29;;;;;;;10.30;9.60;;;;;;;;;;4993509;28;20037;-64
2022/12/02 08:19:55;;;;;;;11.77;10.65;;;;;;;;;;4994569;28;20479;-64
2022/12/02 08:22:20;;;;;;;10.30;9.45;;;;;;;;;;4995493;28;20528;-64
2022/12/02 08:24:45;;;;;;;10.13;9.32;;;;;;;;;;4993304;28;20843;-63
2022/12/02 08:27:11;;;;;;;10.45;9.65;;;;;;;;;;4991536;28;20559;-63
2022/12/02 08:29:36;;;;;;;10.13;9.43;;;;;;;;;;4995776;28;20034;-64
2022/12/02 08:32:02;;;;;;;9.63;8.93;;;;;;;;;;4994750;28;20038;-62
2022/12/02 08:34:27;;;;;;;9.60;8.95;;;;;;;;;;4994730;28;20558;-64
2022/12/02 08:36:52;;;;;;;9.75;9.15;;;;;;;;;;4999805;28;20072;-63
2022/12/02 08:39:18;;;;;;;9.73;9.00;;;;;;;;;;4997946;28;20456;-64
2022/12/02 08:41:43;;;;;;;10.07;9.38;;;;;;;;;;4996370;28;20121;-66
2022/12/02 08:44:09;;;;;;;12.30;10.32;;;;;;;;;;4995729;28;20088;-63
2022/12/02 08:46:35;;;;;;;10.95;10.13;;;;;;;;;;4993968;28;20052;-63
2022/12/02 08:49:00;;;;;;;10.13;9.38;;;;;;;;;;4996901;28;20466;-63
2022/12/02 08:51:26;;;;;;;9.88;9.05;;;;;;;;;;4996372;28;20034;-63
2022/12/02 08:53:52;;;;;;;10.38;9.57;;;;;;;;;;4996184;28;20041;-63
2022/12/02 08:56:18;;;;;;;9.48;8.77;;;;;;;;;;4997553;28;20359;-62
2022/12/02 08:58:43;;;;;;;10.45;9.57;;;;;;;;;;4996773;28;20101;-63
2022/12/02 09:01:08;;;;;;;11.93;11.00;;;;;;;;;;4995402;28;20030;-63
2022/12/02 09:03:34;;;;;;;9.30;8.70;;;;;;;;;;4994347;28;20033;-64
2022/12/02 09:05:59;;;;;;;10.45;9.65;;;;;;;;;;4996317;28;20048;-63
2022/12/02 09:08:25;;;;;;;11.30;10.38;;;;;;;;;;4996834;28;20037;-63
2022/12/02 09:10:50;;;;;;;9.02;8.43;;;;;;;;;;4995652;28;20140;-62
2022/12/02 09:13:16;;;;;;;13.25;11.25;;;;;;;;;;4994775;28;20034;-62
2022/12/02 09:15:41;;;;;;;10.45;9.75;;;;;;;;;;4997039;28;20168;-62
2022/12/02 09:18:07;;;;;;;10.13;9.48;;;;;;;;;;4993423;28;20038;-63
2022/12/02 09:20:32;;;;;;;10.80;9.90;;;;;;;;;;4995686;28;20038;-62
2022/12/02 09:22:57;;;;;;;10.68;9.82;;;;;;;;;;4993525;28;20034;-63
2022/12/02 09:25:23;;;;;;;11.85;10.80;;;;;;;;;;4993778;28;20451;-62
2022/12/02 09:27:48;;;;;;;10.40;9.73;;;;;;;;;;4997060;28;20674;-63
2022/12/02 09:30:14;;;;;;;11.27;10.48;;;;;;;;;;4996686;28;20030;-63
2022/12/02 09:32:39;;;;;;;10.07;9.32;;;;;;;;;;4992933;28;20025;-63
2022/12/02 09:35:06;;;;;;;10.25;9.55;;;;;;;;;;4995940;28;20034;-63
2022/12/02 09:37:31;;;;;;;10.50;9.80;;;;;;;;;;4995773;28;20046;-62
2022/12/02 09:39:57;;;;;;;11.55;10.55;;;;;;;;;;4994639;28;20040;-62
2022/12/02 09:42:22;;;;;;;11.23;10.43;;;;;;;;;;4992954;28;20059;-62
2022/12/02 09:44:48;;;;;;;10.65;9.80;;;;;;;;;;4995771;28;20386;-63
2022/12/02 09:47:15;;;;;;;11.10;10.38;;;;;;;;;;4994391;28;20061;-62
2022/12/02 09:49:43;;;;;;;9.63;8.93;;;;;;;;;;4995414;28;20135;-61
2022/12/02 09:52:14;;;;;;;10.20;9.40;;;;;;;;;;4994673;28;20042;-61
2022/12/02 09:54:40;;;;;;;;;;;;;;;;;;5003998;28;20534;-62
2022/12/02 09:57:12;;;;;;;9.75;8.90;;;;;;;;;;4994529;28;19913;-62
2022/12/02 09:59:38;;;;;;;8.98;8.30;;;;;;;;;;4994305;28;20049;-62
2022/12/02 10:02:04;;;;;;;10.70;9.90;;;;;;;;;;4995642;28;20038;-62
2022/12/02 10:04:30;;;;;;;10.10;9.30;;;;;;;;;;4997549;28;20042;-63
2022/12/02 10:06:56;;;;;;;10.38;9.57;;;;;;;;;;4992589;28;20100;-63
2022/12/02 10:09:28;;;;;;;8.88;8.27;;;;;;;;;;4993267;28;20045;-63
2022/12/02 10:11:54;;;;;;;11.23;10.27;;;;;;;;;;4994571;28;20030;-62
2022/12/02 10:14:19;;;;;;;12.25;11.20;;;;;;;;;;4992359;28;20307;-62
2022/12/02 10:16:45;;;;;;;10.52;9.73;;;;;;;;;;4990789;28;20138;-63
2022/12/02 10:19:15;;;;;;;11.20;10.20;;;;;;;;;;4995971;28;20121;-62
2022/12/02 10:21:41;;;;;;;10.32;9.52;;;;;;;;;;4993616;28;20451;-62
2022/12/02 10:24:11;;;;;;;10.98;10.18;;;;;;;;;;4991893;28;20041;-62
2022/12/02 10:26:49;;;;;;;11.35;10.40;;;;;;;;;;4994644;28;20091;-62
2022/12/02 10:29:24;;;;;;;10.38;9.55;;;;;;;;;;5001737;28;20053;-63
2022/12/02 10:31:57;;;;;;;10.52;9.68;;;;;;;;;;4994958;28;20026;-63
2022/12/02 10:34:23;;;;;;;10.90;10.00;;;;;;;;;;4995097;28;20034;-63
2022/12/02 10:36:49;;;;;;;10.07;9.38;;;;;;;;;;4993171;28;20038;-63
2022/12/02 10:39:27;;;;;;;10.10;9.45;;;;;;;;;;4993543;28;20478;-62
2022/12/02 10:42:07;;;;;;;10.15;9.38;;;;;;;;;;4992991;28;20041;-62
2022/12/02 10:44:38;;;;;;;10.63;9.73;;;;;;;;;;4993892;28;20061;-63
2022/12/02 10:47:23;;;;;;;9.63;8.93;;;;;;;;;;4990056;28;20049;-63
2022/12/02 10:49:59;;;;;;;9.50;8.90;;;;;;;;;;4996545;28;20096;-63
2022/12/02 10:52:28;;;;;;;9.60;8.95;;;;;;;;;;4993187;28;20491;-62
2022/12/02 10:54:55;;;;;;;9.80;9.02;;;;;;;;;;4993614;28;20034;-64
2022/12/02 10:57:27;;;;;;;9.95;9.25;;;;;;;;;;4995840;28;20041;-63
2022/12/02 10:59:58;;;;;;;9.90;9.18;;;;;;;;;;4993985;28;20038;-63
2022/12/02 11:02:26;;;;;;;9.43;8.82;;;;;;;;;;4994150;28;20466;-64
2022/12/02 11:04:52;;;;;;;9.73;8.93;;;;;;;;;;4995101;28;20033;-63
2022/12/02 11:07:24;;;;;;;10.35;9.55;;;;;;;;;;4995459;28;20412;-63
2022/12/02 11:09:53;;;;;;;10.95;10.25;;;;;;;;;;4995239;28;20156;-65
2022/12/02 11:12:35;;;;;;;12.68;11.63;;;;;;;;;;4992212;28;20136;-61
2022/12/02 11:15:03;;;;;;;;;;;;;;;;;;4993481;28;20349;-64
2022/12/02 11:17:47;;;;;;;9.43;8.82;;;;;;;;;;4994424;28;19921;-63
2022/12/02 11:20:27;;;;;;;10.18;9.30;;;;;;;;;;4993776;28;20456;-63
2022/12/02 11:22:58;;;;;;;9.77;9.07;;;;;;;;;;4996032;28;20129;-66
2022/12/02 11:25:42;;;;;;;10.40;9.70;;;;;;;;;;4993703;28;20034;-63
2022/12/02 11:28:16;;;;;;;10.95;9.82;;;;;;;;;;4993398;28;20042;-63
2022/12/02 11:30:41;;;;;;;10.82;9.85;;;;;;;;;;4992039;28;20034;-64
2022/12/02 11:33:31;;;;;;;10.43;9.65;;;;;;;;;;4994681;28;20022;-64
2022/12/02 11:36:12;;;;;;;10.27;9.40;;;;;;;;;;4993983;28;20035;-62
2022/12/02 11:38:43;;;;;;;;;;;;;;;;;;4994444;28;20152;-63
2022/12/02 11:41:09;;;;;;;9.45;8.85;;;;;;;;;;4991802;28;19925;-63
2022/12/02 11:43:43;;;;;;;10.23;9.30;;;;;;;;;;4995034;28;20041;-62
2022/12/02 11:46:09;;;;;;;10.80;9.93;;;;;;;;;;4992860;28;20072;-63
2022/12/02 11:48:54;;;;;;;9.93;9.23;;;;;;;;;;4993770;28;20419;-62
2022/12/02 11:51:28;;;;;;;11.93;11.02;;;;;;;;;;4990770;28;20042;-63
2022/12/02 11:53:54;;;;;;;10.10;9.40;;;;;;;;;;4991761;28;20595;-63
2022/12/02 11:56:19;;;;;;;11.25;10.38;;;;;;;;;;4988408;28;20050;-64
2022/12/02 11:58:44;;;;;;;10.98;10.18;;;;;;;;;;4992452;28;20111;-63
2022/12/02 12:01:19;;;;;;;10.50;9.80;;;;;;;;;;4995302;28;20031;-63
2022/12/02 12:03:50;;;;;;;10.45;9.65;;;;;;;;;;4996953;28;20088;-63
2022/12/02 12:06:18;;;;;;;10.48;9.77;;;;;;;;;;5001475;28;20112;-63
2022/12/02 12:08:55;;;;;;;10.30;9.63;;;;;;;;;;4999273;28;20044;-63
2022/12/02 12:11:36;;;;;;;16.77;11.80;;;;;;;;;;4997624;28;20144;-63
2022/12/02 12:14:10;;;;;;;10.80;10.10;;;;;;;;;;4996361;28;20038;-63
2022/12/02 12:16:39;;;;;;;9.80;9.10;;;;;;;;;;4999476;28;20269;-62
2022/12/02 12:19:10;;;;;;;12.07;11.18;;;;;;;;;;4996048;28;20069;-62
2022/12/02 12:21:41;;;;;;;10.23;9.32;;;;;;;;;;4997826;28;20925;-63
2022/12/02 12:24:15;;;;;;;10.37;9.67;;;;;;;;;;4993948;28;20030;-62
2022/12/02 12:26:48;;;;;;;10.38;9.63;;;;;;;;;;4995363;28;20360;-61
2022/12/02 12:29:14;;;;;;;10.25;9.55;;;;;;;;;;4996312;28;20081;-61
2022/12/02 12:31:40;;;;;;;10.45;9.65;;;;;;;;;;4997670;28;20029;-60
2022/12/02 12:34:06;;;;;;;9.98;9.30;;;;;;;;;;4998601;28;20130;-60
2022/12/02 12:36:33;;;;;;;9.98;9.32;;;;;;;;;;4996372;28;20121;-60
2022/12/02 12:38:58;;;;;;;11.13;10.32;;;;;;;;;;4995509;28;20041;-60
2022/12/02 12:41:23;;;;;;;9.70;9.00;;;;;;;;;;4997919;28;20038;-60
2022/12/02 12:43:49;;;;;;;10.57;9.75;;;;;;;;;;4998376;28;20034;-60
2022/12/02 12:46:15;;;;;;;10.43;9.75;;;;;;;;;;5000305;28;20372;-60
2022/12/02 12:48:40;;;;;;;11.13;10.32;;;;;;;;;;4999103;28;20052;-59
2022/12/02 12:51:05;;;;;;;10.48;9.77;;;;;;;;;;4997271;28;20037;-63
2022/12/02 12:53:31;;;;;;;11.23;10.35;;;;;;;;;;4997670;28;20169;-62
2022/12/02 12:55:56;;;;;;;11.13;10.40;;;;;;;;;;4997390;28;20049;-63
2022/12/02 12:58:22;;;;;;;10.73;9.93;;;;;;;;;;4999407;28;20045;-65
2022/12/02 13:00:47;;;;;;;11.00;10.30;;;;;;;;;;4997882;28;20041;-62
2022/12/02 13:03:13;;;;;;;10.75;9.95;;;;;;;;;;4998224;28;20037;-60
2022/12/02 13:05:38;;;;;;;11.45;10.65;;;;;;;;;;4999697;28;20080;-61
2022/12/02 13:08:03;;;;;;;10.95;10.25;;;;;;;;;;4997178;28;20041;-61
2022/12/02 13:10:29;;;;;;;10.98;10.18;;;;;;;;;;4999024;28;20083;-64
2022/12/02 13:12:54;;;;;;;11.93;10.88;;;;;;;;;;4998109;28;20060;-65
2022/12/02 13:15:20;;;;;;;11.88;11.02;;;;;;;;;;4999100;28;20029;-64
2022/12/02 13:17:45;;;;;;;10.48;9.77;;;;;;;;;;4996829;28;20036;-65
2022/12/02 13:20:13;;;;;;;12.15;11.18;;;;;;;;;;4998317;28;20034;-63
2022/12/02 13:22:38;;;;;;;11.85;10.95;;;;;;;;;;4993973;28;20116;-63
2022/12/02 13:25:04;;;;;;;11.05;10.10;;;;;;;;;;4993775;28;20439;-64
2022/12/02 13:27:29;;;;;;;11.02;10.30;;;;;;;;;;4995271;28;20530;-64
2022/12/02 13:29:55;;;;;;;12.27;11.48;;;;;;;;;;4995528;28;20142;-63
2022/12/02 13:32:20;;;;;;;10.50;9.80;;;;;;;;;;4996485;28;20180;-64
2022/12/02 13:34:45;;;;;;;11.73;10.93;;;;;;;;;;4994971;28;20057;-64
2022/12/02 13:37:11;;;;;;;9.82;9.15;;;;;;;;;;4996095;28;20571;-66
2022/12/02 13:39:36;;;;;;;12.80;11.90;;;;;;;;;;4994300;28;20044;-66
2022/12/02 13:42:02;;;;;;;11.90;10.80;;;;;;;;;;4993388;28;20099;-64
2022/12/02 13:44:27;;;;;;;11.77;10.98;;;;;;;;;;4995788;28;20042;-64
2022/12/02 13:46:52;;;;;;;11.52;10.63;;;;;;;;;;4996358;28;20026;-64
2022/12/02 13:49:18;;;;;;;11.57;10.68;;;;;;;;;;4997396;28;20506;-65
2022/12/02 13:51:43;;;;;;;12.13;11.30;;;;;;;;;;4996498;28;20036;-64
2022/12/02 13:54:09;;;;;;;11.70;10.82;;;;;;;;;;4991539;28;20033;-66
2022/12/02 13:56:34;;;;;;;10.85;10.15;;;;;;;;;;4993512;28;20051;-66
2022/12/02 13:58:59;;;;;;;11.77;10.95;;;;;;;;;;4994974;28;20037;-65
2022/12/02 14:01:25;;;;;;;10.95;10.15;;;;;;;;;;4996290;28;20735;-64
2022/12/02 14:03:50;;;;;;;11.20;10.48;;;;;;;;;;4995277;28;20080;-66
2022/12/02 14:06:15;;;;;;;12.18;11.35;;;;;;;;;;4994953;28;20046;-65
2022/12/02 14:08:41;;;;;;;11.07;10.38;;;;;;;;;;4991822;28;20136;-65
2022/12/02 14:11:06;;;;;;;11.27;10.45;;;;;;;;;;4993421;28;20037;-66
2022/12/02 14:13:32;;;;;;;11.07;10.30;;;;;;;;;;4994008;28;20503;-63
2022/12/02 14:15:57;;;;;;;10.48;9.77;;;;;;;;;;4993809;28;20121;-65
2022/12/02 14:18:22;;;;;;;11.35;10.57;;;;;;;;;;4996451;28;20112;-64
2022/12/02 14:20:48;;;;;;;11.50;10.50;;;;;;;;;;4993307;28;20042;-64
2022/12/02 14:23:13;;;;;;;11.70;10.90;;;;;;;;;;4993738;28;21092;-64
2022/12/02 14:25:39;;;;;;;11.45;10.65;;;;;;;;;;4992373;28;20030;-64
2022/12/02 14:28:04;;;;;;;12.02;11.13;;;;;;;;;;4993042;28;20073;-64
2022/12/02 14:30:29;;;;;;;12.50;11.70;;;;;;;;;;4993166;28;20033;-64